createdAt,value
2023-06-11T00:00:52.561Z,22.84
2023-06-11T00:06:22.100Z,22.84
2023-06-11T00:11:29.567Z,22.83
2023-06-11T00:16:38.554Z,22.82
2023-06-11T00:21:46.445Z,22.81
2023-06-11T00:26:53.878Z,22.81
2023-06-11T00:32:01.779Z,22.81
2023-06-11T00:37:10.170Z,22.80
2023-06-11T00:42:21.111Z,22.81
2023-06-11T00:47:28.372Z,22.80
2023-06-11T00:52:35.422Z,22.80
2023-06-11T00:57:43.065Z,22.78
2023-06-11T01:02:59.097Z,22.79
2023-06-11T01:08:09.111Z,22.79
2023-06-11T01:13:16.896Z,22.79
2023-06-11T01:18:25.359Z,22.78
2023-06-11T01:23:42.840Z,22.78
2023-06-11T01:28:52.879Z,22.78
2023-06-11T01:34:00.519Z,22.78
2023-06-11T01:39:07.860Z,22.77
2023-06-11T01:44:15.298Z,22.76
2023-06-11T01:49:22.845Z,22.76
2023-06-11T01:54:30.348Z,22.75
2023-06-11T01:59:37.806Z,22.75
2023-06-11T02:04:44.996Z,22.75
2023-06-11T02:09:52.029Z,22.75
2023-06-11T02:14:59.375Z,22.74
2023-06-11T02:20:08.360Z,22.74
2023-06-11T02:25:15.317Z,22.73
2023-06-11T02:30:22.734Z,22.73
2023-06-11T02:35:29.987Z,22.73
2023-06-11T02:40:37.219Z,22.72
2023-06-11T02:45:44.514Z,22.73
2023-06-11T02:50:51.477Z,22.71
2023-06-11T02:55:58.651Z,22.71
2023-06-11T03:01:06.000Z,22.71
2023-06-11T03:06:13.343Z,22.71
2023-06-11T03:11:20.905Z,22.71
2023-06-11T03:16:28.148Z,22.70
2023-06-11T03:21:35.610Z,22.70
2023-06-11T03:26:42.695Z,22.69
2023-06-11T03:31:49.837Z,22.69
2023-06-11T03:36:57.019Z,22.69
2023-06-11T03:42:04.353Z,22.68
2023-06-11T03:47:11.572Z,22.68
2023-06-11T03:52:19.276Z,22.68
2023-06-11T03:57:26.641Z,22.68
2023-06-11T04:02:33.998Z,22.67
2023-06-11T04:07:41.641Z,22.67
2023-06-11T04:12:49.427Z,22.67
2023-06-11T04:17:56.571Z,22.67
2023-06-11T04:23:03.836Z,22.67
2023-06-11T04:28:11.597Z,22.67
2023-06-11T04:33:18.859Z,22.67
2023-06-11T04:38:26.157Z,22.67
2023-06-11T04:43:34.894Z,22.67
2023-06-11T04:48:42.813Z,22.68
2023-06-11T04:53:53.738Z,22.68
2023-06-11T04:59:01.092Z,22.68
2023-06-11T05:04:08.494Z,22.67
2023-06-11T05:09:16.281Z,22.68
2023-06-11T05:14:23.282Z,22.67
2023-06-11T05:19:30.432Z,22.67
2023-06-11T05:24:37.624Z,22.66
2023-06-11T05:29:46.449Z,22.66
2023-06-11T05:34:53.823Z,22.67
2023-06-11T05:40:01.027Z,22.66
2023-06-11T05:45:09.331Z,22.66
2023-06-11T05:50:16.697Z,22.66
2023-06-11T05:55:24.014Z,22.66
2023-06-11T06:00:31.416Z,22.66
2023-06-11T06:05:38.667Z,22.65
2023-06-11T06:10:46.005Z,22.65
2023-06-11T06:15:54.431Z,22.68
2023-06-11T06:21:01.768Z,22.67
2023-06-11T06:26:09.087Z,22.68
2023-06-11T06:31:16.328Z,22.71
2023-06-11T06:36:23.629Z,22.76
2023-06-11T06:41:31.043Z,22.79
2023-06-11T06:46:38.550Z,22.81
2023-06-11T06:51:45.752Z,22.84
2023-06-11T06:56:53.011Z,22.85
2023-06-11T07:02:00.202Z,22.86
2023-06-11T07:07:07.782Z,22.89
2023-06-11T07:12:15.193Z,22.90
2023-06-11T07:17:24.358Z,22.94
2023-06-11T07:22:32.536Z,22.98
2023-06-11T07:27:40.160Z,23.00
2023-06-11T07:32:47.837Z,23.02
2023-06-11T07:37:55.485Z,23.02
2023-06-11T07:43:02.625Z,23.02
2023-06-11T07:48:09.953Z,23.02
2023-06-11T07:53:17.018Z,22.99
2023-06-11T07:58:24.314Z,23.00
2023-06-11T08:03:32.022Z,22.98
2023-06-11T08:08:39.592Z,22.98
2023-06-11T08:13:47.403Z,22.99
2023-06-11T08:18:54.602Z,22.98
2023-06-11T08:24:01.960Z,22.97
2023-06-11T08:29:09.210Z,22.97
2023-06-11T08:34:16.399Z,22.99
2023-06-11T08:39:23.720Z,22.98
2023-06-11T08:44:31.281Z,22.96
2023-06-11T08:49:41.130Z,22.98
2023-06-11T08:54:48.406Z,23.02
2023-06-11T08:59:55.869Z,23.03
2023-06-11T09:05:03.172Z,23.05
2023-06-11T09:10:11.722Z,23.06
2023-06-11T09:15:20.073Z,23.04
2023-06-11T09:20:27.704Z,23.04
2023-06-11T09:25:35.475Z,23.02
2023-06-11T09:30:42.939Z,23.02
2023-06-11T09:35:50.564Z,23.01
2023-06-11T09:40:58.552Z,23.00
2023-06-11T09:46:05.671Z,23.02
2023-06-11T09:51:12.966Z,23.04
2023-06-11T09:56:20.221Z,23.04
2023-06-11T10:01:29.477Z,23.04
2023-06-11T10:06:38.972Z,23.04
2023-06-11T10:11:47.373Z,23.04
2023-06-11T10:16:56.059Z,23.02
2023-06-11T10:22:04.102Z,23.02
2023-06-11T10:27:12.202Z,23.01
2023-06-11T10:32:20.153Z,23.01
2023-06-11T10:37:37.081Z,23.01
2023-06-11T10:42:45.119Z,23.01
2023-06-11T10:47:52.674Z,23.02
2023-06-11T10:53:00.795Z,23.01
2023-06-11T10:58:08.734Z,23.01
2023-06-11T11:03:16.753Z,23.00
2023-06-11T11:08:25.993Z,23.01
2023-06-11T11:13:35.241Z,23.00
2023-06-11T11:18:42.585Z,23.00
2023-06-11T11:23:50.827Z,22.99
2023-06-11T11:28:58.397Z,22.99
2023-06-11T11:34:05.584Z,22.98
2023-06-11T11:39:16.584Z,22.99
2023-06-11T11:44:25.788Z,22.99
2023-06-11T11:49:35.668Z,22.98
2023-06-11T11:54:46.386Z,22.99
2023-06-11T11:59:55.609Z,22.98
2023-06-11T12:05:03.180Z,22.98
2023-06-11T12:10:11.590Z,22.97
2023-06-11T12:15:19.203Z,22.98
2023-06-11T12:20:26.643Z,22.96
2023-06-11T12:25:34.861Z,22.98
2023-06-11T12:30:44.042Z,22.97
2023-06-11T12:35:51.140Z,22.98
2023-06-11T12:40:58.281Z,22.97
2023-06-11T12:46:05.585Z,22.96
2023-06-11T12:51:13.101Z,22.96
2023-06-11T12:56:20.350Z,22.96
2023-06-11T13:01:27.715Z,22.97
2023-06-11T13:06:34.827Z,22.96
2023-06-11T13:11:42.007Z,22.96
2023-06-11T13:16:49.097Z,22.96
2023-06-11T13:21:56.435Z,22.97
2023-06-11T13:27:03.925Z,22.97
2023-06-11T13:32:12.231Z,22.96
2023-06-11T13:37:19.555Z,22.97
2023-06-11T13:42:27.287Z,22.96
2023-06-11T13:47:34.366Z,22.97
2023-06-11T13:52:41.609Z,22.97
2023-06-11T13:57:48.805Z,22.97
2023-06-11T14:02:56.192Z,22.97
2023-06-11T14:08:03.894Z,22.96
2023-06-11T14:13:10.887Z,22.95
2023-06-11T14:18:18.957Z,22.96
2023-06-11T14:23:26.039Z,22.97
2023-06-11T14:28:33.019Z,22.97
2023-06-11T14:33:40.225Z,22.97
2023-06-11T14:38:47.588Z,22.97
2023-06-11T14:43:54.818Z,22.95
2023-06-11T14:49:10.888Z,22.96
2023-06-11T14:54:19.025Z,22.97
2023-06-11T14:59:26.681Z,22.96
2023-06-11T15:04:33.924Z,22.95
2023-06-11T15:09:41.513Z,22.95
2023-06-11T15:14:48.622Z,22.95
2023-06-11T15:19:55.874Z,22.96
2023-06-11T15:25:03.292Z,22.95
2023-06-11T15:30:11.687Z,22.96
2023-06-11T15:35:19.565Z,22.94
2023-06-11T15:40:27.064Z,22.96
2023-06-11T15:45:34.345Z,22.96
2023-06-11T15:50:41.838Z,22.96
2023-06-11T15:55:49.230Z,22.96
2023-06-11T16:00:56.695Z,22.96
2023-06-11T16:06:04.172Z,22.95
2023-06-11T16:11:11.832Z,22.94
2023-06-11T16:16:19.152Z,22.93
2023-06-11T16:21:26.355Z,22.94
2023-06-11T16:26:33.524Z,22.94
2023-06-11T16:31:43.513Z,22.94
2023-06-11T16:36:51.602Z,22.94
2023-06-11T16:41:58.879Z,22.94
2023-06-11T16:47:06.839Z,22.93
2023-06-11T16:52:14.182Z,22.93
2023-06-11T16:57:21.764Z,22.93
2023-06-11T17:02:29.605Z,22.93
2023-06-11T17:07:38.494Z,22.93
2023-06-11T17:12:47.511Z,22.93
2023-06-11T17:17:55.723Z,22.93
2023-06-11T17:23:04.081Z,22.93
2023-06-11T17:28:11.639Z,22.93
2023-06-11T17:33:19.208Z,22.93
2023-06-11T17:38:26.737Z,22.91
2023-06-11T17:43:34.481Z,22.92
2023-06-11T17:48:41.396Z,22.92
2023-06-11T17:53:48.411Z,22.92
2023-06-11T17:58:55.449Z,22.91
2023-06-11T18:04:02.870Z,22.91
2023-06-11T18:09:10.402Z,22.91
2023-06-11T18:14:17.829Z,22.90
2023-06-11T18:19:24.901Z,22.91
2023-06-11T18:24:33.941Z,22.91
2023-06-11T18:29:41.272Z,22.91
2023-06-11T18:34:49.400Z,22.90
2023-06-11T18:39:56.864Z,22.90
2023-06-11T18:45:03.930Z,22.90
2023-06-11T18:50:12.616Z,22.90
2023-06-11T18:55:22.636Z,22.89
2023-06-11T19:00:30.176Z,22.89
2023-06-11T19:05:37.170Z,22.89
2023-06-11T19:10:46.573Z,22.89
2023-06-11T19:15:55.399Z,22.89
2023-06-11T19:21:02.869Z,22.88
2023-06-11T19:26:11.244Z,22.88
2023-06-11T19:31:19.817Z,22.88
2023-06-11T19:36:27.611Z,22.88
2023-06-11T19:41:36.211Z,22.88
2023-06-11T19:46:43.716Z,22.88
2023-06-11T19:51:51.247Z,22.88
2023-06-11T19:56:58.371Z,22.88
2023-06-11T20:02:06.092Z,22.88
2023-06-11T20:07:13.507Z,22.87
2023-06-11T20:12:20.673Z,22.87
2023-06-11T20:17:28.250Z,22.87
2023-06-11T20:22:35.566Z,22.88
2023-06-11T20:27:43.980Z,22.87
2023-06-11T20:32:51.657Z,22.87
2023-06-11T20:37:59.042Z,22.87
2023-06-11T20:43:06.900Z,22.87
2023-06-11T20:48:14.111Z,22.86
2023-06-11T20:53:33.410Z,22.86
2023-06-11T20:58:42.329Z,22.87
2023-06-11T21:03:49.913Z,22.86
2023-06-11T21:08:57.401Z,22.86
2023-06-11T21:14:13.459Z,22.85
2023-06-11T21:19:22.047Z,22.86
2023-06-11T21:24:29.049Z,22.85
2023-06-11T21:29:36.228Z,22.85
2023-06-11T21:34:43.297Z,22.85
2023-06-11T21:39:50.354Z,22.85
2023-06-11T21:44:57.459Z,22.84
2023-06-11T21:50:07.134Z,22.84
2023-06-11T21:55:14.665Z,22.84
2023-06-11T22:00:22.109Z,22.84
2023-06-11T22:05:29.340Z,22.84
2023-06-11T22:10:36.449Z,22.84
2023-06-11T22:15:43.426Z,22.83
2023-06-11T22:20:50.909Z,22.83
2023-06-11T22:25:58.214Z,22.83
2023-06-11T22:31:05.591Z,22.83
2023-06-11T22:36:12.772Z,22.83
2023-06-11T22:41:19.953Z,22.82
2023-06-11T22:46:27.141Z,22.82
2023-06-11T22:51:37.971Z,22.83
2023-06-11T22:56:45.287Z,22.82
2023-06-11T23:01:52.826Z,22.82
2023-06-11T23:07:00.056Z,22.82
2023-06-11T23:12:08.603Z,22.81
2023-06-11T23:17:17.430Z,22.81
2023-06-11T23:22:25.503Z,22.81
2023-06-11T23:27:35.040Z,22.81
2023-06-11T23:32:42.975Z,22.81
2023-06-11T23:37:53.224Z,22.80
2023-06-11T23:43:19.475Z,22.80
2023-06-11T23:48:26.864Z,22.80
2023-06-11T23:53:34.350Z,22.80
2023-06-11T23:58:41.827Z,22.80
